createdAt,value
2023-04-15T00:01:11.823Z,7.67
2023-04-15T00:04:16.126Z,7.93
2023-04-15T00:07:19.708Z,8.17
2023-04-15T00:10:23.366Z,7.93
2023-04-15T00:13:28.465Z,7.43
2023-04-15T00:16:32.099Z,7.10
2023-04-15T00:19:35.700Z,8.10
2023-04-15T00:22:39.331Z,7.67
2023-04-15T00:25:42.887Z,8.27
2023-04-15T00:28:47.833Z,8.40
2023-04-15T00:31:51.369Z,7.97
2023-04-15T00:34:54.880Z,7.80
2023-04-15T00:37:58.490Z,8.13
2023-04-15T00:41:03.105Z,7.50
2023-04-15T00:44:08.290Z,7.67
2023-04-15T00:47:13.324Z,8.77
2023-04-15T00:50:16.839Z,8.30
2023-04-15T00:53:20.685Z,8.90
2023-04-15T00:56:25.511Z,8.57
2023-04-15T00:59:31.780Z,8.73
2023-04-15T01:02:36.565Z,8.57
2023-04-15T01:05:41.718Z,8.37
2023-04-15T01:08:45.795Z,8.73
2023-04-15T01:11:49.418Z,8.77
2023-04-15T01:14:55.424Z,8.47
2023-04-15T01:18:01.215Z,9.37
2023-04-15T01:21:06.208Z,9.90
2023-04-15T01:24:11.964Z,9.27
2023-04-15T01:27:16.793Z,10.20
2023-04-15T01:30:21.876Z,9.17
2023-04-15T01:33:25.692Z,10.23
2023-04-15T01:36:29.937Z,9.20
2023-04-15T01:39:33.728Z,9.53
2023-04-15T01:42:38.999Z,9.47
2023-04-15T01:45:42.972Z,9.50
2023-04-15T01:48:46.630Z,9.33
2023-04-15T01:51:50.236Z,10.33
2023-04-15T01:54:53.754Z,10.00
2023-04-15T01:57:59.045Z,10.57
2023-04-15T02:01:03.091Z,9.60
2023-04-15T02:04:07.278Z,9.13
2023-04-15T02:07:10.872Z,10.37
2023-04-15T02:10:16.431Z,9.67
2023-04-15T02:13:21.387Z,9.70
2023-04-15T02:16:24.906Z,10.40
2023-04-15T02:19:28.448Z,10.57
2023-04-15T02:22:32.014Z,9.73
2023-04-15T02:25:35.579Z,9.97
2023-04-15T02:28:40.515Z,9.17
2023-04-15T02:31:45.043Z,9.40
2023-04-15T02:34:48.714Z,9.03
2023-04-15T02:37:52.574Z,9.67
2023-04-15T02:40:56.644Z,9.80
2023-04-15T02:44:01.461Z,9.20
2023-04-15T02:47:07.218Z,8.67
2023-04-15T02:50:13.260Z,9.40
2023-04-15T02:53:17.577Z,11.03
2023-04-15T02:56:23.198Z,10.40
2023-04-15T02:59:28.317Z,11.20
2023-04-15T03:02:36.099Z,10.10
2023-04-15T03:05:40.568Z,11.87
2023-04-15T03:08:43.983Z,11.07
2023-04-15T03:11:47.772Z,12.80
2023-04-15T03:14:52.562Z,13.00
2023-04-15T03:17:56.070Z,13.50
2023-04-15T03:20:59.550Z,13.30
2023-04-15T03:24:03.107Z,12.53
2023-04-15T03:27:08.029Z,12.17
2023-04-15T03:30:14.386Z,11.30
2023-04-15T03:33:18.148Z,11.60
2023-04-15T03:36:21.738Z,12.47
2023-04-15T03:39:25.251Z,11.90
2023-04-15T03:42:28.784Z,12.50
2023-04-15T03:45:34.092Z,11.03
2023-04-15T03:48:37.835Z,11.47
2023-04-15T03:51:41.385Z,11.47
2023-04-15T03:54:44.925Z,12.53
2023-04-15T03:57:48.391Z,11.57
2023-04-15T04:00:53.350Z,11.97
2023-04-15T04:03:57.148Z,10.90
2023-04-15T04:07:00.866Z,11.20
2023-04-15T04:10:04.889Z,11.27
2023-04-15T04:13:08.426Z,12.03
2023-04-15T04:16:13.485Z,13.03
2023-04-15T04:19:19.649Z,13.30
2023-04-15T04:22:24.831Z,12.87
2023-04-15T04:25:28.349Z,13.00
2023-04-15T04:28:31.890Z,14.70
2023-04-15T04:31:37.125Z,14.60
2023-04-15T04:34:40.701Z,14.30
2023-04-15T04:37:44.242Z,16.03
2023-04-15T04:40:47.851Z,16.03
2023-04-15T04:43:51.441Z,16.53
2023-04-15T04:46:56.412Z,16.57
2023-04-15T04:49:59.918Z,19.47
2023-04-15T04:53:04.057Z,17.00
2023-04-15T04:56:08.031Z,17.67
2023-04-15T04:59:11.615Z,16.93
2023-04-15T05:02:16.654Z,18.13
2023-04-15T05:05:20.380Z,16.17
2023-04-15T05:08:23.925Z,17.83
2023-04-15T05:11:28.355Z,18.03
2023-04-15T05:14:32.316Z,16.63
2023-04-15T05:17:37.350Z,17.43
2023-04-15T05:20:41.070Z,17.30
2023-04-15T05:23:44.656Z,17.33
2023-04-15T05:26:48.456Z,18.83
2023-04-15T05:29:51.956Z,18.10
2023-04-15T05:32:57.278Z,17.17
2023-04-15T05:36:00.808Z,17.27
2023-04-15T05:39:04.581Z,17.77
2023-04-15T05:42:08.146Z,17.77
2023-04-15T05:45:12.860Z,16.60
2023-04-15T05:48:17.776Z,17.47
2023-04-15T05:51:21.449Z,17.80
2023-04-15T05:54:25.054Z,17.87
2023-04-15T05:57:28.734Z,18.07
2023-04-15T06:00:32.297Z,17.43
2023-04-15T06:03:37.452Z,17.07
2023-04-15T06:06:41.187Z,17.13
2023-04-15T06:09:45.058Z,17.50
2023-04-15T06:12:48.625Z,18.10
2023-04-15T06:15:52.278Z,17.93
2023-04-15T06:18:57.180Z,17.33
2023-04-15T06:22:00.873Z,18.13
2023-04-15T06:25:04.723Z,16.57
2023-04-15T06:28:08.848Z,18.23
2023-04-15T06:31:12.709Z,17.20
2023-04-15T06:34:18.378Z,16.97
2023-04-15T06:37:22.234Z,16.37
2023-04-15T06:40:26.066Z,17.90
2023-04-15T06:43:29.774Z,17.23
2023-04-15T06:46:33.364Z,15.83
2023-04-15T06:49:38.708Z,16.80
2023-04-15T06:52:42.504Z,16.03
2023-04-15T06:55:46.039Z,16.70
2023-04-15T06:58:49.478Z,16.53
2023-04-15T07:01:53.008Z,16.67
2023-04-15T07:04:57.937Z,16.13
2023-04-15T07:08:02.040Z,17.00
2023-04-15T07:11:05.587Z,16.20
2023-04-15T07:14:09.139Z,17.17
2023-04-15T07:17:13.440Z,16.27
2023-04-15T07:20:18.796Z,16.17
2023-04-15T07:23:22.539Z,15.70
2023-04-15T07:26:26.106Z,15.30
2023-04-15T07:29:29.680Z,16.67
2023-04-15T07:32:33.200Z,17.00
2023-04-15T07:35:38.182Z,15.70
2023-04-15T07:38:41.712Z,15.60
2023-04-15T07:41:45.318Z,16.40
2023-04-15T07:44:49.051Z,15.97
2023-04-15T07:47:52.691Z,15.20
2023-04-15T07:50:57.634Z,15.90
2023-04-15T07:54:01.209Z,17.63
2023-04-15T07:57:04.900Z,15.80
2023-04-15T08:00:10.136Z,15.10
2023-04-15T08:03:13.725Z,14.80
2023-04-15T08:06:18.804Z,15.13
2023-04-15T08:09:22.396Z,16.27
2023-04-15T08:12:26.084Z,15.97
2023-04-15T08:15:46.317Z,16.80
2023-04-15T08:18:52.177Z,15.83
2023-04-15T08:21:57.702Z,15.10
2023-04-15T08:25:01.636Z,14.57
2023-04-15T08:28:07.548Z,14.90
2023-04-15T08:31:11.309Z,14.80
2023-04-15T08:34:15.068Z,13.90
2023-04-15T08:37:21.320Z,15.77
2023-04-15T08:40:29.818Z,15.17
2023-04-15T08:43:39.150Z,14.40
2023-04-15T08:46:44.735Z,14.00
2023-04-15T08:49:53.896Z,15.47
2023-04-15T08:53:00.994Z,13.63
2023-04-15T08:56:10.996Z,14.57
2023-04-15T08:59:14.870Z,14.50
2023-04-15T09:02:18.805Z,14.70
2023-04-15T09:05:23.151Z,13.57
2023-04-15T09:08:28.202Z,14.70
2023-04-15T09:11:32.445Z,15.03
2023-04-15T09:14:37.307Z,15.23
2023-04-15T09:17:45.386Z,14.00
2023-04-15T09:20:48.892Z,14.70
2023-04-15T09:24:03.324Z,14.70
2023-04-15T09:27:07.568Z,15.27
2023-04-15T09:30:13.213Z,14.50
2023-04-15T09:33:17.344Z,13.40
2023-04-15T09:36:21.008Z,12.67
2023-04-15T09:39:26.069Z,12.93
2023-04-15T09:42:29.490Z,12.67
2023-04-15T09:45:36.632Z,12.10
2023-04-15T09:48:40.125Z,12.07
2023-04-15T09:51:51.330Z,13.77
2023-04-15T09:55:08.934Z,11.97
2023-04-15T09:58:20.611Z,11.77
2023-04-15T10:01:29.704Z,11.80
2023-04-15T10:04:37.858Z,11.60
2023-04-15T10:07:43.053Z,11.80
2023-04-15T10:10:49.830Z,12.27
2023-04-15T10:13:57.419Z,11.67
2023-04-15T10:17:13.822Z,13.93
2023-04-15T10:20:21.426Z,13.97
2023-04-15T10:23:27.917Z,13.23
2023-04-15T10:26:33.323Z,12.93
2023-04-15T10:29:37.870Z,14.17
2023-04-15T10:32:42.666Z,12.90
2023-04-15T10:35:47.656Z,13.07
2023-04-15T10:38:52.245Z,13.77
2023-04-15T10:42:11.589Z,14.70
2023-04-15T10:45:20.527Z,14.90
2023-04-15T10:48:26.048Z,15.40
2023-04-15T10:51:33.735Z,14.67
2023-04-15T10:54:39.464Z,14.77
2023-04-15T10:57:52.476Z,15.47
2023-04-15T11:01:04.577Z,17.13
2023-04-15T11:04:08.572Z,16.53
2023-04-15T11:07:12.197Z,17.47
2023-04-15T11:10:53.978Z,17.93
2023-04-15T11:13:59.121Z,18.80
2023-04-15T11:17:03.049Z,18.97
2023-04-15T11:20:17.771Z,19.43
2023-04-15T11:23:30.023Z,20.90
2023-04-15T11:26:33.888Z,22.53
2023-04-15T11:29:38.958Z,23.20
2023-04-15T11:32:44.155Z,23.60
2023-04-15T11:35:49.461Z,24.17
2023-04-15T11:38:53.078Z,25.93
2023-04-15T11:41:56.558Z,24.93
2023-04-15T11:45:10.610Z,23.97
2023-04-15T11:48:15.597Z,25.03
2023-04-15T11:51:21.905Z,25.53
2023-04-15T11:54:25.608Z,25.70
2023-04-15T11:57:33.231Z,25.40
2023-04-15T12:00:40.079Z,27.33
2023-04-15T12:03:47.058Z,26.03
2023-04-15T12:06:50.977Z,25.37
2023-04-15T12:09:57.907Z,26.10
2023-04-15T12:13:01.670Z,25.60
2023-04-15T12:16:09.357Z,25.93
2023-04-15T12:19:15.131Z,26.67
2023-04-15T12:22:20.085Z,26.07
2023-04-15T12:25:36.454Z,27.20
2023-04-15T12:28:42.750Z,26.20
2023-04-15T12:31:53.182Z,25.57
2023-04-15T12:34:56.718Z,26.73
2023-04-15T12:38:00.606Z,26.13
2023-04-15T12:41:04.298Z,26.83
2023-04-15T12:44:43.950Z,26.40
2023-04-15T12:47:48.922Z,26.10
2023-04-15T12:50:52.634Z,27.00
2023-04-15T12:53:59.237Z,25.53
2023-04-15T12:57:05.963Z,25.63
2023-04-15T13:00:13.533Z,24.90
2023-04-15T13:03:18.846Z,28.07
2023-04-15T13:06:24.084Z,26.40
2023-04-15T13:09:27.741Z,26.53
2023-04-15T13:12:31.329Z,26.33
2023-04-15T13:15:35.974Z,25.63
2023-04-15T13:18:41.137Z,25.90
2023-04-15T13:21:44.733Z,25.17
2023-04-15T13:24:48.356Z,23.87
2023-04-15T13:27:52.388Z,25.23
2023-04-15T13:30:56.221Z,23.57
2023-04-15T13:34:01.254Z,24.93
2023-04-15T13:37:08.927Z,22.83
2023-04-15T13:40:13.305Z,23.83
2023-04-15T13:43:17.571Z,23.27
2023-04-15T13:46:21.484Z,21.77
2023-04-15T13:49:26.425Z,20.90
2023-04-15T13:52:30.185Z,22.47
2023-04-15T13:55:35.077Z,22.63
2023-04-15T13:58:39.231Z,23.53
2023-04-15T14:01:43.816Z,22.23
2023-04-15T14:04:48.857Z,23.07
2023-04-15T14:07:52.458Z,22.63
2023-04-15T14:10:55.945Z,21.67
2023-04-15T14:13:59.463Z,22.83
2023-04-15T14:17:03.909Z,23.57
2023-04-15T14:20:11.423Z,23.03
2023-04-15T14:23:14.910Z,23.23
2023-04-15T14:26:18.428Z,21.13
2023-04-15T14:29:22.292Z,21.17
2023-04-15T14:32:27.311Z,21.83
2023-04-15T14:35:32.641Z,21.53
2023-04-15T14:38:38.547Z,21.47
2023-04-15T14:41:42.203Z,24.13
2023-04-15T14:44:45.766Z,22.00
2023-04-15T14:47:49.364Z,21.83
2023-04-15T14:50:54.833Z,21.17
2023-04-15T14:53:58.452Z,21.60
2023-04-15T14:57:02.907Z,21.20
2023-04-15T15:00:08.535Z,21.37
2023-04-15T15:03:13.889Z,20.20
2023-04-15T15:06:18.999Z,19.83
2023-04-15T15:09:23.909Z,17.93
2023-04-15T15:12:27.431Z,14.10
2023-04-15T15:15:31.219Z,12.70
2023-04-15T15:18:34.824Z,11.97
2023-04-15T15:21:39.799Z,11.50
2023-04-15T15:24:43.429Z,12.50
2023-04-15T15:27:46.965Z,10.37
2023-04-15T15:30:51.075Z,10.90
2023-04-15T15:33:54.597Z,9.40
2023-04-15T15:36:59.656Z,8.27
2023-04-15T15:40:05.118Z,7.83
2023-04-15T15:43:08.771Z,7.40
2023-04-15T15:46:12.394Z,8.00
2023-04-15T15:49:16.464Z,7.17
2023-04-15T15:52:21.466Z,7.97
2023-04-15T15:55:27.286Z,7.23
2023-04-15T15:58:31.314Z,7.80
2023-04-15T16:01:34.942Z,8.10
2023-04-15T16:04:39.071Z,8.90
2023-04-15T16:07:44.108Z,10.83
2023-04-15T16:10:47.877Z,8.53
2023-04-15T16:13:51.364Z,7.97
2023-04-15T16:16:55.135Z,8.30
2023-04-15T16:20:00.906Z,8.70
2023-04-15T16:23:13.457Z,8.13
2023-04-15T16:26:17.081Z,9.23
2023-04-15T16:29:20.724Z,9.83
2023-04-15T16:32:38.648Z,11.33
2023-04-15T16:35:42.397Z,11.10
2023-04-15T16:38:48.811Z,11.73
2023-04-15T16:41:52.580Z,11.50
2023-04-15T16:44:56.668Z,12.10
2023-04-15T16:48:00.391Z,11.50
2023-04-15T16:51:04.062Z,11.77
2023-04-15T16:54:10.080Z,12.87
2023-04-15T16:57:13.786Z,13.53
2023-04-15T17:00:17.961Z,13.50
2023-04-15T17:03:21.828Z,13.73
2023-04-15T17:06:26.571Z,15.37
2023-04-15T17:09:32.042Z,14.07
2023-04-15T17:12:36.267Z,13.73
2023-04-15T17:15:50.760Z,14.17
2023-04-15T17:18:55.320Z,14.37
2023-04-15T17:21:59.317Z,14.53
2023-04-15T17:25:05.388Z,13.60
2023-04-15T17:28:09.112Z,14.17
2023-04-15T17:31:12.912Z,13.67
2023-04-15T17:34:23.756Z,13.73
2023-04-15T17:37:27.981Z,14.70
2023-04-15T17:40:33.301Z,14.33
2023-04-15T17:43:36.854Z,13.90
2023-04-15T17:46:40.539Z,14.40
2023-04-15T17:49:45.101Z,15.07
2023-04-15T17:52:48.602Z,14.30
2023-04-15T17:55:53.859Z,15.50
2023-04-15T17:58:59.235Z,15.30
2023-04-15T18:02:02.885Z,16.57
2023-04-15T18:05:07.752Z,17.30
2023-04-15T18:08:11.512Z,14.80
2023-04-15T18:11:17.633Z,17.83
2023-04-15T18:14:33.597Z,15.57
2023-04-15T18:17:38.659Z,14.53
2023-04-15T18:20:42.182Z,16.10
2023-04-15T18:23:46.119Z,14.80
2023-04-15T18:26:51.222Z,15.40
2023-04-15T18:29:54.798Z,16.10
2023-04-15T18:32:58.439Z,15.40
2023-04-15T18:36:02.639Z,14.00
2023-04-15T18:39:06.962Z,13.80
2023-04-15T18:42:12.009Z,13.77
2023-04-15T18:45:16.357Z,13.30
2023-04-15T18:48:20.130Z,13.10
2023-04-15T18:51:23.956Z,13.70
2023-04-15T18:54:27.532Z,14.60
2023-04-15T18:57:35.451Z,14.57
2023-04-15T19:00:41.834Z,13.23
2023-04-15T19:03:46.156Z,13.60
2023-04-15T19:06:50.113Z,15.10
2023-04-15T19:09:54.864Z,14.20
2023-04-15T19:13:01.173Z,14.03
2023-04-15T19:16:05.103Z,21.10
2023-04-15T19:19:14.764Z,14.80
2023-04-15T19:22:19.822Z,16.87
2023-04-15T19:25:29.378Z,26.23
2023-04-15T19:28:34.302Z,14.80
2023-04-15T19:31:38.893Z,14.27
2023-04-15T19:34:42.559Z,15.17
2023-04-15T19:37:46.303Z,13.80
2023-04-15T19:40:49.793Z,15.53
2023-04-15T19:43:54.785Z,14.97
2023-04-15T19:46:59.069Z,14.60
2023-04-15T19:50:02.941Z,15.33
2023-04-15T19:53:06.465Z,14.73
2023-04-15T19:56:09.974Z,14.80
2023-04-15T19:59:14.952Z,14.50
2023-04-15T20:02:18.596Z,15.07
2023-04-15T20:05:22.614Z,14.43
2023-04-15T20:08:27.546Z,13.60
2023-04-15T20:12:44.910Z,14.67
2023-04-15T20:14:58.217Z,16.40
2023-04-15T20:18:02.211Z,15.33
2023-04-15T20:21:05.987Z,14.23
2023-04-15T20:24:09.913Z,14.63
2023-04-15T20:27:13.407Z,14.70
2023-04-15T20:30:18.354Z,14.90
2023-04-15T20:33:23.034Z,14.67
2023-04-15T20:36:33.360Z,15.13
2023-04-15T20:39:42.189Z,14.87
2023-04-15T20:42:45.721Z,15.17
2023-04-15T20:45:54.168Z,14.90
2023-04-15T20:48:57.962Z,14.70
2023-04-15T20:52:01.478Z,14.97
2023-04-15T20:55:05.699Z,14.13
2023-04-15T20:58:09.228Z,15.40
2023-04-15T21:01:14.229Z,15.00
2023-04-15T21:04:17.793Z,14.50
2023-04-15T21:07:21.459Z,14.93
2023-04-15T21:10:25.303Z,15.87
2023-04-15T21:13:28.876Z,16.73
2023-04-15T21:16:34.110Z,15.23
2023-04-15T21:19:38.827Z,15.67
2023-04-15T21:22:42.622Z,17.03
2023-04-15T21:25:46.128Z,15.17
2023-04-15T21:28:49.697Z,15.67
2023-04-15T21:31:54.703Z,16.40
2023-04-15T21:34:58.311Z,15.20
2023-04-15T21:38:01.911Z,16.20
2023-04-15T21:41:09.548Z,16.30
2023-04-15T21:44:14.863Z,17.37
2023-04-15T21:47:20.350Z,15.73
2023-04-15T21:50:25.398Z,16.67
2023-04-15T21:53:29.303Z,15.07
2023-04-15T21:56:33.984Z,16.43
2023-04-15T21:59:37.578Z,15.50
2023-04-15T22:02:42.800Z,15.13
2023-04-15T22:05:48.440Z,15.20
2023-04-15T22:08:57.117Z,15.57
2023-04-15T22:12:01.164Z,15.73
2023-04-15T22:15:05.632Z,15.97
2023-04-15T22:18:10.543Z,16.47
2023-04-15T22:21:14.683Z,16.10
2023-04-15T22:24:38.807Z,15.60
2023-04-15T22:27:41.833Z,16.30
2023-04-15T22:30:45.603Z,15.37
2023-04-15T22:33:50.706Z,15.80
2023-04-15T22:36:54.380Z,15.20
2023-04-15T22:39:58.446Z,15.47
2023-04-15T22:43:02.088Z,15.80
2023-04-15T22:46:05.834Z,14.70
2023-04-15T22:49:11.408Z,15.60
2023-04-15T22:52:29.373Z,15.57
2023-04-15T22:55:33.914Z,15.10
2023-04-15T22:58:37.414Z,15.23
2023-04-15T23:01:40.980Z,15.97
2023-04-15T23:04:46.413Z,15.07
2023-04-15T23:07:49.990Z,15.07
2023-04-15T23:10:53.579Z,14.77
2023-04-15T23:13:57.073Z,15.13
2023-04-15T23:17:01.023Z,15.50
2023-04-15T23:20:06.983Z,15.23
2023-04-15T23:23:10.494Z,14.60
2023-04-15T23:26:14.162Z,16.23
2023-04-15T23:29:17.750Z,15.77
2023-04-15T23:32:21.222Z,16.27
2023-04-15T23:35:27.336Z,15.00
2023-04-15T23:38:30.865Z,16.60
2023-04-15T23:41:34.481Z,17.10
2023-04-15T23:44:38.334Z,16.73
2023-04-15T23:47:42.123Z,17.13
2023-04-15T23:50:47.166Z,17.10
2023-04-15T23:53:52.393Z,18.03
2023-04-15T23:56:56.120Z,17.50
